sensor_id;sensor_type;location;lat;lon;timestamp;P1;durP1;ratioP1;P2;durP2;ratioP2
44985;SDS011;30721;49.380;7.736;2023-05-07T00:00:02;3.35;;;2.85;;
44985;SDS011;30721;49.380;7.736;2023-05-07T00:02:32;3.42;;;3.13;;
44985;SDS011;30721;49.380;7.736;2023-05-07T00:04:57;5.10;;;3.08;;
44985;SDS011;30721;49.380;7.736;2023-05-07T00:07:22;3.15;;;2.85;;
44985;SDS011;30721;49.380;7.736;2023-05-07T00:09:48;3.00;;;2.80;;
44985;SDS011;30721;49.380;7.736;2023-05-07T00:12:13;3.28;;;3.00;;
44985;SDS011;30721;49.380;7.736;2023-05-07T00:14:41;2.70;;;2.50;;
44985;SDS011;30721;49.380;7.736;2023-05-07T00:17:06;3.13;;;2.30;;
44985;SDS011;30721;49.380;7.736;2023-05-07T00:19:32;2.30;;;2.10;;
44985;SDS011;30721;49.380;7.736;2023-05-07T00:21:57;2.55;;;2.28;;
44985;SDS011;30721;49.380;7.736;2023-05-07T00:24:23;2.75;;;2.28;;
44985;SDS011;30721;49.380;7.736;2023-05-07T00:26:49;2.28;;;2.10;;
44985;SDS011;30721;49.380;7.736;2023-05-07T00:29:14;2.53;;;2.30;;
44985;SDS011;30721;49.380;7.736;2023-05-07T00:31:40;2.33;;;2.13;;
44985;SDS011;30721;49.380;7.736;2023-05-07T00:34:05;2.92;;;2.50;;
44985;SDS011;30721;49.380;7.736;2023-05-07T00:36:31;2.15;;;1.92;;
44985;SDS011;30721;49.380;7.736;2023-05-07T00:38:57;2.40;;;2.20;;
44985;SDS011;30721;49.380;7.736;2023-05-07T00:41:25;2.17;;;1.98;;
44985;SDS011;30721;49.380;7.736;2023-05-07T00:43:50;2.28;;;2.05;;
44985;SDS011;30721;49.380;7.736;2023-05-07T00:46:16;2.00;;;1.90;;
44985;SDS011;30721;49.380;7.736;2023-05-07T00:48:42;2.50;;;2.30;;
44985;SDS011;30721;49.380;7.736;2023-05-07T00:51:08;2.88;;;2.05;;
44985;SDS011;30721;49.380;7.736;2023-05-07T00:53:36;2.95;;;2.67;;
44985;SDS011;30721;49.380;7.736;2023-05-07T00:56:02;1.90;;;1.80;;
44985;SDS011;30721;49.380;7.736;2023-05-07T00:58:27;3.13;;;2.13;;
44985;SDS011;30721;49.380;7.736;2023-05-07T01:00:52;2.47;;;2.28;;
44985;SDS011;30721;49.380;7.736;2023-05-07T01:03:18;3.03;;;2.25;;
44985;SDS011;30721;49.380;7.736;2023-05-07T01:05:44;3.00;;;2.70;;
44985;SDS011;30721;49.380;7.736;2023-05-07T01:08:11;3.03;;;2.33;;
44985;SDS011;30721;49.380;7.736;2023-05-07T01:10:37;2.78;;;2.00;;
44985;SDS011;30721;49.380;7.736;2023-05-07T01:13:02;2.75;;;2.00;;
44985;SDS011;30721;49.380;7.736;2023-05-07T01:15:28;2.88;;;2.28;;
44985;SDS011;30721;49.380;7.736;2023-05-07T01:17:56;2.13;;;1.92;;
44985;SDS011;30721;49.380;7.736;2023-05-07T01:20:22;2.60;;;2.22;;
44985;SDS011;30721;49.380;7.736;2023-05-07T01:22:48;2.75;;;2.38;;
44985;SDS011;30721;49.380;7.736;2023-05-07T01:25:14;2.72;;;2.53;;
44985;SDS011;30721;49.380;7.736;2023-05-07T01:27:41;2.72;;;2.53;;
44985;SDS011;30721;49.380;7.736;2023-05-07T01:30:06;2.25;;;2.05;;
44985;SDS011;30721;49.380;7.736;2023-05-07T01:32:34;2.58;;;2.08;;
44985;SDS011;30721;49.380;7.736;2023-05-07T01:35:02;2.47;;;1.92;;
44985;SDS011;30721;49.380;7.736;2023-05-07T01:37:33;2.45;;;2.25;;
44985;SDS011;30721;49.380;7.736;2023-05-07T01:40:01;2.72;;;2.53;;
44985;SDS011;30721;49.380;7.736;2023-05-07T01:42:28;2.45;;;2.10;;
44985;SDS011;30721;49.380;7.736;2023-05-07T01:44:54;2.13;;;1.95;;
44985;SDS011;30721;49.380;7.736;2023-05-07T01:47:20;2.75;;;2.38;;
44985;SDS011;30721;49.380;7.736;2023-05-07T01:49:46;2.75;;;2.13;;
44985;SDS011;30721;49.380;7.736;2023-05-07T01:52:11;2.13;;;2.03;;
44985;SDS011;30721;49.380;7.736;2023-05-07T01:54:37;3.15;;;2.03;;
44985;SDS011;30721;49.380;7.736;2023-05-07T01:57:02;1.95;;;1.85;;
44985;SDS011;30721;49.380;7.736;2023-05-07T01:59:28;2.22;;;2.08;;
44985;SDS011;30721;49.380;7.736;2023-05-07T02:01:53;3.15;;;2.40;;
44985;SDS011;30721;49.380;7.736;2023-05-07T02:04:19;2.30;;;2.10;;
44985;SDS011;30721;49.380;7.736;2023-05-07T02:06:44;1.83;;;1.73;;
44985;SDS011;30721;49.380;7.736;2023-05-07T02:09:10;2.50;;;2.30;;
44985;SDS011;30721;49.380;7.736;2023-05-07T02:11:36;2.42;;;2.15;;
44985;SDS011;30721;49.380;7.736;2023-05-07T02:14:01;2.58;;;2.38;;
44985;SDS011;30721;49.380;7.736;2023-05-07T02:16:27;2.88;;;2.22;;
44985;SDS011;30721;49.380;7.736;2023-05-07T02:18:52;2.55;;;2.10;;
44985;SDS011;30721;49.380;7.736;2023-05-07T02:21:18;3.38;;;2.70;;
44985;SDS011;30721;49.380;7.736;2023-05-07T02:23:44;2.75;;;2.55;;
44985;SDS011;30721;49.380;7.736;2023-05-07T02:26:10;3.38;;;2.90;;
44985;SDS011;30721;49.380;7.736;2023-05-07T02:28:36;2.72;;;2.38;;
44985;SDS011;30721;49.380;7.736;2023-05-07T02:31:04;3.42;;;2.90;;
44985;SDS011;30721;49.380;7.736;2023-05-07T02:33:30;2.80;;;2.53;;
44985;SDS011;30721;49.380;7.736;2023-05-07T02:35:55;3.78;;;2.75;;
44985;SDS011;30721;49.380;7.736;2023-05-07T02:38:21;2.78;;;2.58;;
44985;SDS011;30721;49.380;7.736;2023-05-07T02:40:47;2.83;;;2.63;;
44985;SDS011;30721;49.380;7.736;2023-05-07T02:43:12;2.70;;;2.50;;
44985;SDS011;30721;49.380;7.736;2023-05-07T02:45:38;2.88;;;2.67;;
44985;SDS011;30721;49.380;7.736;2023-05-07T02:48:04;4.65;;;2.85;;
44985;SDS011;30721;49.380;7.736;2023-05-07T02:50:31;2.63;;;2.42;;
44985;SDS011;30721;49.380;7.736;2023-05-07T02:52:57;2.30;;;2.20;;
44985;SDS011;30721;49.380;7.736;2023-05-07T02:55:23;2.92;;;2.72;;
44985;SDS011;30721;49.380;7.736;2023-05-07T02:57:48;3.00;;;2.70;;
44985;SDS011;30721;49.380;7.736;2023-05-07T03:00:15;2.97;;;2.67;;
44985;SDS011;30721;49.380;7.736;2023-05-07T03:02:41;2.90;;;2.70;;
44985;SDS011;30721;49.380;7.736;2023-05-07T03:05:07;2.63;;;2.42;;
44985;SDS011;30721;49.380;7.736;2023-05-07T03:07:34;2.80;;;2.60;;
44985;SDS011;30721;49.380;7.736;2023-05-07T03:10:00;2.83;;;2.63;;
44985;SDS011;30721;49.380;7.736;2023-05-07T03:12:25;2.78;;;2.58;;
44985;SDS011;30721;49.380;7.736;2023-05-07T03:14:51;3.92;;;2.97;;
44985;SDS011;30721;49.380;7.736;2023-05-07T03:17:16;3.30;;;3.00;;
44985;SDS011;30721;49.380;7.736;2023-05-07T03:19:42;2.97;;;2.75;;
44985;SDS011;30721;49.380;7.736;2023-05-07T03:22:07;3.47;;;3.17;;
44985;SDS011;30721;49.380;7.736;2023-05-07T03:24:32;3.83;;;3.10;;
44985;SDS011;30721;49.380;7.736;2023-05-07T03:26:58;3.17;;;2.80;;
44985;SDS011;30721;49.380;7.736;2023-05-07T03:29:23;2.90;;;2.60;;
44985;SDS011;30721;49.380;7.736;2023-05-07T03:31:49;2.47;;;2.28;;
44985;SDS011;30721;49.380;7.736;2023-05-07T03:34:14;3.70;;;2.70;;
44985;SDS011;30721;49.380;7.736;2023-05-07T03:36:42;3.00;;;2.70;;
44985;SDS011;30721;49.380;7.736;2023-05-07T03:39:07;3.03;;;2.45;;
44985;SDS011;30721;49.380;7.736;2023-05-07T03:41:33;3.47;;;2.70;;
44985;SDS011;30721;49.380;7.736;2023-05-07T03:43:58;3.33;;;2.72;;
44985;SDS011;30721;49.380;7.736;2023-05-07T03:46:24;2.85;;;2.58;;
44985;SDS011;30721;49.380;7.736;2023-05-07T03:48:51;3.15;;;2.85;;
44985;SDS011;30721;49.380;7.736;2023-05-07T03:51:16;3.20;;;2.90;;
44985;SDS011;30721;49.380;7.736;2023-05-07T03:53:42;3.00;;;2.63;;
44985;SDS011;30721;49.380;7.736;2023-05-07T03:56:07;4.13;;;3.05;;
44985;SDS011;30721;49.380;7.736;2023-05-07T03:58:33;2.80;;;2.60;;
44985;SDS011;30721;49.380;7.736;2023-05-07T04:00:58;2.92;;;2.65;;
44985;SDS011;30721;49.380;7.736;2023-05-07T04:03:24;3.05;;;2.78;;
44985;SDS011;30721;49.380;7.736;2023-05-07T04:05:49;3.13;;;2.83;;
44985;SDS011;30721;49.380;7.736;2023-05-07T04:08:15;4.03;;;3.50;;
44985;SDS011;30721;49.380;7.736;2023-05-07T04:10:40;3.53;;;3.22;;
44985;SDS011;30721;49.380;7.736;2023-05-07T04:13:06;2.90;;;2.70;;
44985;SDS011;30721;49.380;7.736;2023-05-07T04:15:31;4.07;;;2.80;;
44985;SDS011;30721;49.380;7.736;2023-05-07T04:17:57;3.35;;;3.05;;
44985;SDS011;30721;49.380;7.736;2023-05-07T04:20:22;3.10;;;2.80;;
44985;SDS011;30721;49.380;7.736;2023-05-07T04:22:48;3.45;;;3.10;;
44985;SDS011;30721;49.380;7.736;2023-05-07T04:25:13;3.47;;;2.92;;
44985;SDS011;30721;49.380;7.736;2023-05-07T04:27:41;3.20;;;2.90;;
44985;SDS011;30721;49.380;7.736;2023-05-07T04:30:07;2.95;;;2.75;;
44985;SDS011;30721;49.380;7.736;2023-05-07T04:32:33;3.20;;;2.90;;
44985;SDS011;30721;49.380;7.736;2023-05-07T04:34:58;3.70;;;3.10;;
44985;SDS011;30721;49.380;7.736;2023-05-07T04:37:25;3.38;;;2.92;;
44985;SDS011;30721;49.380;7.736;2023-05-07T04:39:50;3.22;;;2.90;;
44985;SDS011;30721;49.380;7.736;2023-05-07T04:42:16;2.90;;;2.55;;
44985;SDS011;30721;49.380;7.736;2023-05-07T04:44:43;3.85;;;2.92;;
44985;SDS011;30721;49.380;7.736;2023-05-07T04:47:09;3.70;;;3.05;;
44985;SDS011;30721;49.380;7.736;2023-05-07T04:49:35;3.83;;;3.15;;
44985;SDS011;30721;49.380;7.736;2023-05-07T04:52:01;3.63;;;3.00;;
44985;SDS011;30721;49.380;7.736;2023-05-07T04:54:26;3.55;;;2.78;;
44985;SDS011;30721;49.380;7.736;2023-05-07T04:56:52;3.30;;;2.97;;
44985;SDS011;30721;49.380;7.736;2023-05-07T04:59:17;3.67;;;3.00;;
44985;SDS011;30721;49.380;7.736;2023-05-07T05:01:43;3.15;;;2.53;;
44985;SDS011;30721;49.380;7.736;2023-05-07T05:04:08;2.90;;;2.70;;
44985;SDS011;30721;49.380;7.736;2023-05-07T05:06:33;3.13;;;2.58;;
44985;SDS011;30721;49.380;7.736;2023-05-07T05:09:02;4.28;;;3.08;;
44985;SDS011;30721;49.380;7.736;2023-05-07T05:11:29;3.33;;;3.03;;
44985;SDS011;30721;49.380;7.736;2023-05-07T05:13:55;3.05;;;2.75;;
44985;SDS011;30721;49.380;7.736;2023-05-07T05:16:20;3.40;;;3.10;;
44985;SDS011;30721;49.380;7.736;2023-05-07T05:18:46;3.67;;;3.38;;
44985;SDS011;30721;49.380;7.736;2023-05-07T05:21:11;5.18;;;3.50;;
44985;SDS011;30721;49.380;7.736;2023-05-07T05:23:37;3.70;;;3.40;;
44985;SDS011;30721;49.380;7.736;2023-05-07T05:26:02;3.53;;;3.22;;
44985;SDS011;30721;49.380;7.736;2023-05-07T05:28:27;3.65;;;3.30;;
44985;SDS011;30721;49.380;7.736;2023-05-07T05:30:53;4.53;;;3.53;;
44985;SDS011;30721;49.380;7.736;2023-05-07T05:33:19;4.00;;;3.53;;
44985;SDS011;30721;49.380;7.736;2023-05-07T05:35:44;3.58;;;3.08;;
44985;SDS011;30721;49.380;7.736;2023-05-07T05:38:10;6.13;;;4.15;;
44985;SDS011;30721;49.380;7.736;2023-05-07T05:40:35;3.60;;;3.30;;
44985;SDS011;30721;49.380;7.736;2023-05-07T05:43:00;4.55;;;3.92;;
44985;SDS011;30721;49.380;7.736;2023-05-07T05:45:26;3.50;;;3.20;;
44985;SDS011;30721;49.380;7.736;2023-05-07T05:47:51;3.72;;;3.42;;
44985;SDS011;30721;49.380;7.736;2023-05-07T05:50:17;4.18;;;3.20;;
44985;SDS011;30721;49.380;7.736;2023-05-07T05:52:42;3.55;;;3.25;;
44985;SDS011;30721;49.380;7.736;2023-05-07T05:55:08;4.32;;;3.20;;
44985;SDS011;30721;49.380;7.736;2023-05-07T05:57:34;5.07;;;4.00;;
44985;SDS011;30721;49.380;7.736;2023-05-07T06:00:00;3.58;;;3.28;;
44985;SDS011;30721;49.380;7.736;2023-05-07T06:02:25;3.90;;;3.40;;
44985;SDS011;30721;49.380;7.736;2023-05-07T06:04:51;3.47;;;3.17;;
44985;SDS011;30721;49.380;7.736;2023-05-07T06:07:18;3.60;;;3.30;;
44985;SDS011;30721;49.380;7.736;2023-05-07T06:09:44;2.83;;;2.63;;
44985;SDS011;30721;49.380;7.736;2023-05-07T06:12:09;2.85;;;2.65;;
44985;SDS011;30721;49.380;7.736;2023-05-07T06:14:35;3.67;;;3.03;;
44985;SDS011;30721;49.380;7.736;2023-05-07T06:17:00;3.50;;;3.20;;
44985;SDS011;30721;49.380;7.736;2023-05-07T06:19:26;5.20;;;3.03;;
44985;SDS011;30721;49.380;7.736;2023-05-07T06:21:53;3.20;;;2.90;;
44985;SDS011;30721;49.380;7.736;2023-05-07T06:24:18;4.72;;;3.40;;
44985;SDS011;30721;49.380;7.736;2023-05-07T06:26:44;4.25;;;3.00;;
44985;SDS011;30721;49.380;7.736;2023-05-07T06:29:09;3.03;;;2.38;;
44985;SDS011;30721;49.380;7.736;2023-05-07T06:31:35;3.35;;;2.75;;
44985;SDS011;30721;49.380;7.736;2023-05-07T06:34:00;3.83;;;3.22;;
44985;SDS011;30721;49.380;7.736;2023-05-07T06:36:27;3.75;;;2.60;;
44985;SDS011;30721;49.380;7.736;2023-05-07T06:38:53;3.55;;;2.50;;
44985;SDS011;30721;49.380;7.736;2023-05-07T06:41:18;2.88;;;2.60;;
44985;SDS011;30721;49.380;7.736;2023-05-07T06:43:45;2.40;;;2.20;;
44985;SDS011;30721;49.380;7.736;2023-05-07T06:46:10;3.45;;;2.42;;
44985;SDS011;30721;49.380;7.736;2023-05-07T06:48:36;2.63;;;2.42;;
44985;SDS011;30721;49.380;7.736;2023-05-07T06:51:01;2.30;;;2.10;;
44985;SDS011;30721;49.380;7.736;2023-05-07T06:53:27;2.35;;;2.15;;
44985;SDS011;30721;49.380;7.736;2023-05-07T06:55:54;2.95;;;2.33;;
44985;SDS011;30721;49.380;7.736;2023-05-07T06:58:19;2.50;;;2.00;;
44985;SDS011;30721;49.380;7.736;2023-05-07T07:00:45;2.90;;;2.03;;
44985;SDS011;30721;49.380;7.736;2023-05-07T07:03:11;2.80;;;2.47;;
44985;SDS011;30721;49.380;7.736;2023-05-07T07:05:36;2.22;;;2.03;;
44985;SDS011;30721;49.380;7.736;2023-05-07T07:08:02;2.90;;;2.63;;
44985;SDS011;30721;49.380;7.736;2023-05-07T07:10:27;2.53;;;2.33;;
44985;SDS011;30721;49.380;7.736;2023-05-07T07:12:53;3.30;;;2.17;;
44985;SDS011;30721;49.380;7.736;2023-05-07T07:15:26;2.30;;;2.08;;
44985;SDS011;30721;49.380;7.736;2023-05-07T07:17:52;2.60;;;2.17;;
44985;SDS011;30721;49.380;7.736;2023-05-07T07:20:18;2.25;;;1.92;;
44985;SDS011;30721;49.380;7.736;2023-05-07T07:22:43;1.70;;;1.60;;
44985;SDS011;30721;49.380;7.736;2023-05-07T07:25:09;2.38;;;2.03;;
44985;SDS011;30721;49.380;7.736;2023-05-07T07:27:37;2.17;;;2.05;;
44985;SDS011;30721;49.380;7.736;2023-05-07T07:30:05;2.67;;;2.00;;
44985;SDS011;30721;49.380;7.736;2023-05-07T07:32:31;1.98;;;1.77;;
44985;SDS011;30721;49.380;7.736;2023-05-07T07:34:58;2.17;;;1.98;;
44985;SDS011;30721;49.380;7.736;2023-05-07T07:37:24;2.20;;;2.00;;
44985;SDS011;30721;49.380;7.736;2023-05-07T07:39:53;1.92;;;1.83;;
44985;SDS011;30721;49.380;7.736;2023-05-07T07:42:19;2.47;;;1.98;;
44985;SDS011;30721;49.380;7.736;2023-05-07T07:44:44;2.13;;;1.88;;
44985;SDS011;30721;49.380;7.736;2023-05-07T07:47:12;1.77;;;1.67;;
44985;SDS011;30721;49.380;7.736;2023-05-07T07:49:38;2.83;;;2.05;;
44985;SDS011;30721;49.380;7.736;2023-05-07T07:52:03;2.03;;;1.80;;
44985;SDS011;30721;49.380;7.736;2023-05-07T07:54:31;1.90;;;1.80;;
44985;SDS011;30721;49.380;7.736;2023-05-07T07:56:57;2.10;;;2.00;;
44985;SDS011;30721;49.380;7.736;2023-05-07T07:59:23;1.80;;;1.70;;
44985;SDS011;30721;49.380;7.736;2023-05-07T08:01:48;2.08;;;1.88;;
44985;SDS011;30721;49.380;7.736;2023-05-07T08:04:15;2.65;;;1.70;;
44985;SDS011;30721;49.380;7.736;2023-05-07T08:06:40;2.72;;;2.15;;
44985;SDS011;30721;49.380;7.736;2023-05-07T08:09:07;2.40;;;2.20;;
44985;SDS011;30721;49.380;7.736;2023-05-07T08:11:33;1.85;;;1.75;;
44985;SDS011;30721;49.380;7.736;2023-05-07T08:13:58;2.00;;;1.90;;
44985;SDS011;30721;49.380;7.736;2023-05-07T08:16:24;2.25;;;2.10;;
44985;SDS011;30721;49.380;7.736;2023-05-07T08:18:50;2.38;;;2.20;;
44985;SDS011;30721;49.380;7.736;2023-05-07T08:21:15;1.88;;;1.73;;
44985;SDS011;30721;49.380;7.736;2023-05-07T08:23:41;2.10;;;1.92;;
44985;SDS011;30721;49.380;7.736;2023-05-07T08:26:07;2.30;;;1.73;;
44985;SDS011;30721;49.380;7.736;2023-05-07T08:28:33;2.15;;;2.03;;
44985;SDS011;30721;49.380;7.736;2023-05-07T08:30:58;1.65;;;1.55;;
44985;SDS011;30721;49.380;7.736;2023-05-07T08:33:26;1.85;;;1.75;;
44985;SDS011;30721;49.380;7.736;2023-05-07T08:35:51;2.00;;;1.90;;
44985;SDS011;30721;49.380;7.736;2023-05-07T08:38:17;1.92;;;1.83;;
44985;SDS011;30721;49.380;7.736;2023-05-07T08:40:42;2.22;;;1.90;;
44985;SDS011;30721;49.380;7.736;2023-05-07T08:43:10;2.20;;;2.00;;
44985;SDS011;30721;49.380;7.736;2023-05-07T08:45:37;2.20;;;2.00;;
44985;SDS011;30721;49.380;7.736;2023-05-07T08:48:05;2.20;;;2.00;;
44985;SDS011;30721;49.380;7.736;2023-05-07T08:50:35;2.45;;;1.98;;
44985;SDS011;30721;49.380;7.736;2023-05-07T08:53:02;2.92;;;2.00;;
44985;SDS011;30721;49.380;7.736;2023-05-07T08:55:28;2.17;;;1.98;;
44985;SDS011;30721;49.380;7.736;2023-05-07T08:57:54;3.10;;;2.35;;
44985;SDS011;30721;49.380;7.736;2023-05-07T09:00:19;2.15;;;1.88;;
44985;SDS011;30721;49.380;7.736;2023-05-07T09:02:45;2.00;;;1.90;;
44985;SDS011;30721;49.380;7.736;2023-05-07T09:05:10;2.17;;;2.03;;
44985;SDS011;30721;49.380;7.736;2023-05-07T09:07:36;2.33;;;2.20;;
44985;SDS011;30721;49.380;7.736;2023-05-07T09:10:05;1.85;;;1.75;;
44985;SDS011;30721;49.380;7.736;2023-05-07T09:12:31;2.90;;;1.92;;
44985;SDS011;30721;49.380;7.736;2023-05-07T09:14:57;2.22;;;2.03;;
44985;SDS011;30721;49.380;7.736;2023-05-07T09:17:24;1.65;;;1.55;;
44985;SDS011;30721;49.380;7.736;2023-05-07T09:19:49;2.88;;;1.80;;
44985;SDS011;30721;49.380;7.736;2023-05-07T09:22:15;2.95;;;2.15;;
44985;SDS011;30721;49.380;7.736;2023-05-07T09:24:41;2.28;;;1.95;;
44985;SDS011;30721;49.380;7.736;2023-05-07T09:27:12;2.15;;;1.92;;
44985;SDS011;30721;49.380;7.736;2023-05-07T09:29:38;2.45;;;1.83;;
44985;SDS011;30721;49.380;7.736;2023-05-07T09:32:04;1.90;;;1.77;;
44985;SDS011;30721;49.380;7.736;2023-05-07T09:34:30;2.05;;;1.90;;
44985;SDS011;30721;49.380;7.736;2023-05-07T09:37:03;2.10;;;2.00;;
44985;SDS011;30721;49.380;7.736;2023-05-07T09:39:48;2.22;;;2.00;;
44985;SDS011;30721;49.380;7.736;2023-05-07T09:42:14;1.88;;;1.77;;
44985;SDS011;30721;49.380;7.736;2023-05-07T09:44:40;1.92;;;1.83;;
44985;SDS011;30721;49.380;7.736;2023-05-07T09:47:06;1.88;;;1.73;;
44985;SDS011;30721;49.380;7.736;2023-05-07T09:49:36;2.22;;;2.00;;
44985;SDS011;30721;49.380;7.736;2023-05-07T09:52:03;2.10;;;1.98;;
44985;SDS011;30721;49.380;7.736;2023-05-07T09:54:35;2.03;;;1.80;;
44985;SDS011;30721;49.380;7.736;2023-05-07T09:57:05;2.17;;;2.05;;
44985;SDS011;30721;49.380;7.736;2023-05-07T09:59:32;2.67;;;2.20;;
44985;SDS011;30721;49.380;7.736;2023-05-07T10:01:58;2.28;;;2.10;;
44985;SDS011;30721;49.380;7.736;2023-05-07T10:04:27;2.35;;;2.25;;
44985;SDS011;30721;49.380;7.736;2023-05-07T10:06:53;2.45;;;2.25;;
44985;SDS011;30721;49.380;7.736;2023-05-07T10:09:20;3.38;;;2.10;;
44985;SDS011;30721;49.380;7.736;2023-05-07T10:11:46;2.90;;;2.70;;
44985;SDS011;30721;49.380;7.736;2023-05-07T10:14:14;2.30;;;2.03;;
44985;SDS011;30721;49.380;7.736;2023-05-07T10:16:39;2.45;;;2.15;;
44985;SDS011;30721;49.380;7.736;2023-05-07T10:19:07;2.55;;;2.35;;
44985;SDS011;30721;49.380;7.736;2023-05-07T10:21:38;2.08;;;1.98;;
44985;SDS011;30721;49.380;7.736;2023-05-07T10:26:33;2.08;;;1.90;;
44985;SDS011;30721;49.380;7.736;2023-05-07T10:29:05;2.80;;;2.60;;
44985;SDS011;30721;49.380;7.736;2023-05-07T10:34:37;2.75;;;2.42;;
44985;SDS011;30721;49.380;7.736;2023-05-07T10:37:05;3.22;;;2.80;;
44985;SDS011;30721;49.380;7.736;2023-05-07T10:39:31;2.60;;;2.40;;
44985;SDS011;30721;49.380;7.736;2023-05-07T10:41:57;3.88;;;2.22;;
44985;SDS011;30721;49.380;7.736;2023-05-07T10:44:32;2.40;;;2.20;;
44985;SDS011;30721;49.380;7.736;2023-05-07T10:47:08;2.53;;;2.15;;
44985;SDS011;30721;49.380;7.736;2023-05-07T10:50:20;2.67;;;2.47;;
44985;SDS011;30721;49.380;7.736;2023-05-07T10:52:21;2.60;;;2.40;;
44985;SDS011;30721;49.380;7.736;2023-05-07T10:54:48;2.20;;;2.00;;
44985;SDS011;30721;49.380;7.736;2023-05-07T10:57:51;2.30;;;2.20;;
44985;SDS011;30721;49.380;7.736;2023-05-07T11:05:30;2.38;;;2.20;;
44985;SDS011;30721;49.380;7.736;2023-05-07T11:07:57;2.40;;;2.20;;
44985;SDS011;30721;49.380;7.736;2023-05-07T11:10:47;2.40;;;2.20;;
44985;SDS011;30721;49.380;7.736;2023-05-07T11:13:13;2.22;;;2.13;;
44985;SDS011;30721;49.380;7.736;2023-05-07T11:15:40;2.60;;;2.50;;
44985;SDS011;30721;49.380;7.736;2023-05-07T11:18:15;4.88;;;3.25;;
44985;SDS011;30721;49.380;7.736;2023-05-07T11:25:59;2.90;;;2.28;;
44985;SDS011;30721;49.380;7.736;2023-05-07T11:28:38;2.53;;;2.33;;
44985;SDS011;30721;49.380;7.736;2023-05-07T11:31:05;2.65;;;2.45;;
44985;SDS011;30721;49.380;7.736;2023-05-07T11:33:34;2.33;;;2.13;;
44985;SDS011;30721;49.380;7.736;2023-05-07T11:36:00;3.00;;;2.47;;
44985;SDS011;30721;49.380;7.736;2023-05-07T11:38:26;2.45;;;2.25;;
44985;SDS011;30721;49.380;7.736;2023-05-07T11:40:59;2.72;;;2.53;;
44985;SDS011;30721;49.380;7.736;2023-05-07T11:43:29;2.92;;;2.50;;
44985;SDS011;30721;49.380;7.736;2023-05-07T11:46:05;2.67;;;2.47;;
44985;SDS011;30721;49.380;7.736;2023-05-07T11:48:34;3.03;;;2.75;;
44985;SDS011;30721;49.380;7.736;2023-05-07T11:51:04;2.50;;;2.30;;
44985;SDS011;30721;49.380;7.736;2023-05-07T11:53:40;2.38;;;2.17;;
44985;SDS011;30721;49.380;7.736;2023-05-07T11:56:07;2.53;;;2.33;;
44985;SDS011;30721;49.380;7.736;2023-05-07T11:58:34;2.92;;;2.72;;
44985;SDS011;30721;49.380;7.736;2023-05-07T12:00:59;2.58;;;2.40;;
44985;SDS011;30721;49.380;7.736;2023-05-07T12:03:25;3.33;;;3.03;;
44985;SDS011;30721;49.380;7.736;2023-05-07T12:05:50;3.08;;;2.88;;
44985;SDS011;30721;49.380;7.736;2023-05-07T12:08:16;2.85;;;2.60;;
44985;SDS011;30721;49.380;7.736;2023-05-07T12:10:44;5.10;;;3.17;;
44985;SDS011;30721;49.380;7.736;2023-05-07T12:13:20;4.28;;;3.00;;
44985;SDS011;30721;49.380;7.736;2023-05-07T12:15:50;3.97;;;3.22;;
44985;SDS011;30721;49.380;7.736;2023-05-07T12:18:19;4.57;;;3.20;;
44985;SDS011;30721;49.380;7.736;2023-05-07T12:20:46;3.33;;;3.13;;
44985;SDS011;30721;49.380;7.736;2023-05-07T12:23:12;5.47;;;4.25;;
44985;SDS011;30721;49.380;7.736;2023-05-07T12:25:38;4.13;;;3.72;;
44985;SDS011;30721;49.380;7.736;2023-05-07T12:28:05;4.10;;;3.80;;
44985;SDS011;30721;49.380;7.736;2023-05-07T12:30:40;6.90;;;4.43;;
44985;SDS011;30721;49.380;7.736;2023-05-07T12:33:05;8.57;;;4.72;;
44985;SDS011;30721;49.380;7.736;2023-05-07T12:35:39;8.05;;;5.00;;
44985;SDS011;30721;49.380;7.736;2023-05-07T12:38:09;7.40;;;5.88;;
44985;SDS011;30721;49.380;7.736;2023-05-07T12:40:36;6.40;;;4.65;;
44985;SDS011;30721;49.380;7.736;2023-05-07T12:43:03;5.55;;;3.90;;
44985;SDS011;30721;49.380;7.736;2023-05-07T12:45:28;8.32;;;3.90;;
44985;SDS011;30721;49.380;7.736;2023-05-07T12:47:54;4.93;;;3.70;;
44985;SDS011;30721;49.380;7.736;2023-05-07T12:50:19;4.13;;;2.10;;
44985;SDS011;30721;49.380;7.736;2023-05-07T12:52:49;4.18;;;2.90;;
44985;SDS011;30721;49.380;7.736;2023-05-07T12:55:15;2.50;;;1.70;;
44985;SDS011;30721;49.380;7.736;2023-05-07T12:57:41;1.95;;;1.40;;
44985;SDS011;30721;49.380;7.736;2023-05-07T13:00:09;1.63;;;1.50;;
44985;SDS011;30721;49.380;7.736;2023-05-07T13:02:39;4.68;;;2.47;;
44985;SDS011;30721;49.380;7.736;2023-05-07T13:05:06;4.00;;;2.10;;
44985;SDS011;30721;49.380;7.736;2023-05-07T13:07:32;4.28;;;2.78;;
44985;SDS011;30721;49.380;7.736;2023-05-07T13:09:58;4.13;;;2.63;;
44985;SDS011;30721;49.380;7.736;2023-05-07T13:12:23;3.80;;;2.28;;
44985;SDS011;30721;49.380;7.736;2023-05-07T13:14:49;2.90;;;2.03;;
44985;SDS011;30721;49.380;7.736;2023-05-07T13:17:14;1.90;;;1.80;;
44985;SDS011;30721;49.380;7.736;2023-05-07T13:19:40;3.42;;;2.50;;
44985;SDS011;30721;49.380;7.736;2023-05-07T13:22:05;4.60;;;2.17;;
44985;SDS011;30721;49.380;7.736;2023-05-07T13:24:31;3.30;;;2.03;;
44985;SDS011;30721;49.380;7.736;2023-05-07T13:26:56;2.30;;;2.00;;
44985;SDS011;30721;49.380;7.736;2023-05-07T13:29:22;2.55;;;2.35;;
44985;SDS011;30721;49.380;7.736;2023-05-07T13:31:53;5.72;;;3.00;;
44985;SDS011;30721;49.380;7.736;2023-05-07T13:34:19;4.30;;;2.63;;
44985;SDS011;30721;49.380;7.736;2023-05-07T13:36:45;7.07;;;2.88;;
44985;SDS011;30721;49.380;7.736;2023-05-07T13:39:11;4.68;;;3.20;;
44985;SDS011;30721;49.380;7.736;2023-05-07T13:41:36;5.13;;;3.78;;
44985;SDS011;30721;49.380;7.736;2023-05-07T13:44:02;5.60;;;3.53;;
44985;SDS011;30721;49.380;7.736;2023-05-07T13:46:27;5.70;;;3.10;;
44985;SDS011;30721;49.380;7.736;2023-05-07T13:48:55;6.53;;;3.25;;
44985;SDS011;30721;49.380;7.736;2023-05-07T13:51:20;4.68;;;2.70;;
44985;SDS011;30721;49.380;7.736;2023-05-07T13:53:47;6.00;;;3.33;;
44985;SDS011;30721;49.380;7.736;2023-05-07T13:56:12;5.10;;;3.65;;
44985;SDS011;30721;49.380;7.736;2023-05-07T13:58:39;3.58;;;3.00;;
44985;SDS011;30721;49.380;7.736;2023-05-07T14:01:04;4.68;;;3.30;;
44985;SDS011;30721;49.380;7.736;2023-05-07T14:03:30;3.35;;;2.90;;
44985;SDS011;30721;49.380;7.736;2023-05-07T14:05:56;6.45;;;3.15;;
44985;SDS011;30721;49.380;7.736;2023-05-07T14:08:23;5.63;;;2.67;;
44985;SDS011;30721;49.380;7.736;2023-05-07T14:10:48;5.57;;;3.28;;
44985;SDS011;30721;49.380;7.736;2023-05-07T14:13:14;7.25;;;3.85;;
44985;SDS011;30721;49.380;7.736;2023-05-07T14:15:39;4.90;;;4.07;;
44985;SDS011;30721;49.380;7.736;2023-05-07T14:18:05;5.28;;;3.75;;
44985;SDS011;30721;49.380;7.736;2023-05-07T14:20:31;5.03;;;3.75;;
44985;SDS011;30721;49.380;7.736;2023-05-07T14:22:56;6.95;;;4.07;;
44985;SDS011;30721;49.380;7.736;2023-05-07T14:25:22;5.68;;;3.80;;
44985;SDS011;30721;49.380;7.736;2023-05-07T14:27:47;8.48;;;4.28;;
44985;SDS011;30721;49.380;7.736;2023-05-07T14:30:13;4.90;;;4.20;;
44985;SDS011;30721;49.380;7.736;2023-05-07T14:32:39;5.97;;;4.50;;
44985;SDS011;30721;49.380;7.736;2023-05-07T14:35:04;7.10;;;5.20;;
44985;SDS011;30721;49.380;7.736;2023-05-07T14:37:30;7.40;;;5.53;;
44985;SDS011;30721;49.380;7.736;2023-05-07T14:39:55;6.78;;;4.95;;
44985;SDS011;30721;49.380;7.736;2023-05-07T14:42:21;7.20;;;5.90;;
44985;SDS011;30721;49.380;7.736;2023-05-07T14:44:46;9.52;;;6.88;;
44985;SDS011;30721;49.380;7.736;2023-05-07T14:47:13;19.92;;;16.50;;
44985;SDS011;30721;49.380;7.736;2023-05-07T14:49:40;35.83;;;28.50;;
44985;SDS011;30721;49.380;7.736;2023-05-07T14:52:08;26.02;;;20.58;;
44985;SDS011;30721;49.380;7.736;2023-05-07T14:54:35;17.48;;;13.75;;
44985;SDS011;30721;49.380;7.736;2023-05-07T14:57:01;18.08;;;15.35;;
44985;SDS011;30721;49.380;7.736;2023-05-07T14:59:27;22.02;;;19.90;;